sensor_id;sensor_type;location;lat;lon;timestamp;P1;durP1;ratioP1;P2;durP2;ratioP2
39728;SDS011;25402;42.004;23.088;2023-07-29T00:01:37;9.95;;;4.25;;
39728;SDS011;25402;42.004;23.088;2023-07-29T00:04:06;7.22;;;4.55;;
39728;SDS011;25402;42.004;23.088;2023-07-29T00:06:33;7.38;;;3.97;;
39728;SDS011;25402;42.004;23.088;2023-07-29T00:09:00;13.73;;;4.60;;
39728;SDS011;25402;42.004;23.088;2023-07-29T00:11:28;12.68;;;4.53;;
39728;SDS011;25402;42.004;23.088;2023-07-29T00:13:55;11.05;;;4.60;;
39728;SDS011;25402;42.004;23.088;2023-07-29T00:16:22;8.02;;;3.63;;
39728;SDS011;25402;42.004;23.088;2023-07-29T00:18:50;7.60;;;3.80;;
39728;SDS011;25402;42.004;23.088;2023-07-29T00:21:17;7.50;;;4.15;;
39728;SDS011;25402;42.004;23.088;2023-07-29T00:23:44;5.20;;;3.97;;
39728;SDS011;25402;42.004;23.088;2023-07-29T00:26:11;7.38;;;3.90;;
39728;SDS011;25402;42.004;23.088;2023-07-29T00:28:38;4.80;;;3.50;;
39728;SDS011;25402;42.004;23.088;2023-07-29T00:31:05;10.73;;;3.90;;
39728;SDS011;25402;42.004;23.088;2023-07-29T00:33:32;7.55;;;4.05;;
39728;SDS011;25402;42.004;23.088;2023-07-29T00:36:00;5.70;;;4.43;;
39728;SDS011;25402;42.004;23.088;2023-07-29T00:38:28;6.63;;;3.70;;
39728;SDS011;25402;42.004;23.088;2023-07-29T00:40:55;9.68;;;3.97;;
39728;SDS011;25402;42.004;23.088;2023-07-29T00:43:23;6.25;;;4.20;;
39728;SDS011;25402;42.004;23.088;2023-07-29T00:45:51;9.73;;;4.68;;
39728;SDS011;25402;42.004;23.088;2023-07-29T00:48:18;7.47;;;4.30;;
39728;SDS011;25402;42.004;23.088;2023-07-29T00:50:45;6.47;;;3.85;;
39728;SDS011;25402;42.004;23.088;2023-07-29T00:53:14;4.80;;;3.53;;
39728;SDS011;25402;42.004;23.088;2023-07-29T00:55:41;6.15;;;3.45;;
39728;SDS011;25402;42.004;23.088;2023-07-29T00:58:08;4.03;;;3.38;;
39728;SDS011;25402;42.004;23.088;2023-07-29T01:00:35;7.03;;;3.40;;
39728;SDS011;25402;42.004;23.088;2023-07-29T01:03:02;5.53;;;3.63;;
39728;SDS011;25402;42.004;23.088;2023-07-29T01:05:32;7.75;;;3.08;;
39728;SDS011;25402;42.004;23.088;2023-07-29T01:08:08;5.20;;;3.45;;
39728;SDS011;25402;42.004;23.088;2023-07-29T01:10:45;5.45;;;2.90;;
39728;SDS011;25402;42.004;23.088;2023-07-29T01:13:19;4.35;;;3.28;;
39728;SDS011;25402;42.004;23.088;2023-07-29T01:15:52;7.47;;;3.53;;
39728;SDS011;25402;42.004;23.088;2023-07-29T01:18:22;8.07;;;3.72;;
39728;SDS011;25402;42.004;23.088;2023-07-29T01:20:53;5.10;;;3.42;;
39728;SDS011;25402;42.004;23.088;2023-07-29T01:23:25;4.15;;;3.22;;
39728;SDS011;25402;42.004;23.088;2023-07-29T01:25:52;6.15;;;3.65;;
39728;SDS011;25402;42.004;23.088;2023-07-29T01:28:19;8.85;;;3.53;;
39728;SDS011;25402;42.004;23.088;2023-07-29T01:30:46;10.98;;;4.00;;
39728;SDS011;25402;42.004;23.088;2023-07-29T01:33:17;7.82;;;3.55;;
39728;SDS011;25402;42.004;23.088;2023-07-29T01:35:51;4.88;;;3.40;;
39728;SDS011;25402;42.004;23.088;2023-07-29T01:38:29;5.63;;;3.58;;
39728;SDS011;25402;42.004;23.088;2023-07-29T01:41:00;5.55;;;3.97;;
39728;SDS011;25402;42.004;23.088;2023-07-29T01:43:28;5.15;;;3.35;;
39728;SDS011;25402;42.004;23.088;2023-07-29T01:45:55;6.90;;;4.10;;
39728;SDS011;25402;42.004;23.088;2023-07-29T01:48:22;5.60;;;3.90;;
39728;SDS011;25402;42.004;23.088;2023-07-29T01:50:49;6.00;;;4.10;;
39728;SDS011;25402;42.004;23.088;2023-07-29T01:53:16;8.15;;;3.90;;
39728;SDS011;25402;42.004;23.088;2023-07-29T01:55:44;5.82;;;4.07;;
39728;SDS011;25402;42.004;23.088;2023-07-29T01:58:11;9.00;;;4.35;;
39728;SDS011;25402;42.004;23.088;2023-07-29T02:00:39;8.18;;;4.28;;
39728;SDS011;25402;42.004;23.088;2023-07-29T02:03:06;4.97;;;3.70;;
39728;SDS011;25402;42.004;23.088;2023-07-29T02:05:33;5.07;;;3.67;;
39728;SDS011;25402;42.004;23.088;2023-07-29T02:08:00;10.65;;;4.10;;
39728;SDS011;25402;42.004;23.088;2023-07-29T02:10:27;6.40;;;4.20;;
39728;SDS011;25402;42.004;23.088;2023-07-29T02:12:55;7.35;;;4.30;;
39728;SDS011;25402;42.004;23.088;2023-07-29T02:15:22;6.88;;;4.13;;
39728;SDS011;25402;42.004;23.088;2023-07-29T02:17:49;6.80;;;4.47;;
39728;SDS011;25402;42.004;23.088;2023-07-29T02:20:17;14.38;;;4.60;;
39728;SDS011;25402;42.004;23.088;2023-07-29T02:22:44;7.22;;;4.75;;
39728;SDS011;25402;42.004;23.088;2023-07-29T02:25:11;13.95;;;5.22;;
39728;SDS011;25402;42.004;23.088;2023-07-29T02:27:37;10.52;;;5.00;;
39728;SDS011;25402;42.004;23.088;2023-07-29T02:30:07;11.45;;;4.80;;
39728;SDS011;25402;42.004;23.088;2023-07-29T02:32:34;9.52;;;4.20;;
39728;SDS011;25402;42.004;23.088;2023-07-29T02:35:01;6.45;;;4.03;;
39728;SDS011;25402;42.004;23.088;2023-07-29T02:37:29;7.05;;;3.63;;
39728;SDS011;25402;42.004;23.088;2023-07-29T02:39:56;5.93;;;4.10;;
39728;SDS011;25402;42.004;23.088;2023-07-29T02:42:23;6.63;;;3.95;;
39728;SDS011;25402;42.004;23.088;2023-07-29T02:44:50;12.32;;;4.13;;
39728;SDS011;25402;42.004;23.088;2023-07-29T02:47:18;9.63;;;4.35;;
39728;SDS011;25402;42.004;23.088;2023-07-29T02:49:45;5.38;;;4.32;;
39728;SDS011;25402;42.004;23.088;2023-07-29T02:52:12;16.33;;;5.38;;
39728;SDS011;25402;42.004;23.088;2023-07-29T02:54:39;29.33;;;7.18;;
39728;SDS011;25402;42.004;23.088;2023-07-29T02:57:06;13.20;;;4.93;;
39728;SDS011;25402;42.004;23.088;2023-07-29T02:59:33;8.13;;;4.57;;
39728;SDS011;25402;42.004;23.088;2023-07-29T03:02:00;13.63;;;4.60;;
39728;SDS011;25402;42.004;23.088;2023-07-29T03:04:28;17.13;;;4.63;;
39728;SDS011;25402;42.004;23.088;2023-07-29T03:06:55;16.63;;;4.88;;
39728;SDS011;25402;42.004;23.088;2023-07-29T03:09:22;19.17;;;5.30;;
39728;SDS011;25402;42.004;23.088;2023-07-29T03:11:49;12.45;;;6.00;;
39728;SDS011;25402;42.004;23.088;2023-07-29T03:14:16;10.55;;;5.20;;
39728;SDS011;25402;42.004;23.088;2023-07-29T03:16:43;15.82;;;5.88;;
39728;SDS011;25402;42.004;23.088;2023-07-29T03:19:10;15.95;;;5.60;;
39728;SDS011;25402;42.004;23.088;2023-07-29T03:21:39;11.95;;;5.72;;
39728;SDS011;25402;42.004;23.088;2023-07-29T03:24:06;7.80;;;5.68;;
39728;SDS011;25402;42.004;23.088;2023-07-29T03:26:33;10.68;;;6.03;;
39728;SDS011;25402;42.004;23.088;2023-07-29T03:29:00;6.13;;;4.50;;
39728;SDS011;25402;42.004;23.088;2023-07-29T03:31:27;8.10;;;4.60;;
39728;SDS011;25402;42.004;23.088;2023-07-29T03:33:54;6.35;;;4.28;;
39728;SDS011;25402;42.004;23.088;2023-07-29T03:36:20;10.75;;;4.43;;
39728;SDS011;25402;42.004;23.088;2023-07-29T03:38:52;8.18;;;4.03;;
39728;SDS011;25402;42.004;23.088;2023-07-29T03:41:19;8.02;;;5.60;;
39728;SDS011;25402;42.004;23.088;2023-07-29T03:43:45;10.02;;;6.00;;
39728;SDS011;25402;42.004;23.088;2023-07-29T03:46:12;9.63;;;5.50;;
39728;SDS011;25402;42.004;23.088;2023-07-29T03:48:43;14.88;;;5.80;;
39728;SDS011;25402;42.004;23.088;2023-07-29T03:51:09;17.00;;;5.40;;
39728;SDS011;25402;42.004;23.088;2023-07-29T03:53:36;13.60;;;5.93;;
39728;SDS011;25402;42.004;23.088;2023-07-29T03:56:05;13.48;;;5.00;;
39728;SDS011;25402;42.004;23.088;2023-07-29T03:58:32;13.05;;;4.45;;
39728;SDS011;25402;42.004;23.088;2023-07-29T04:00:59;30.17;;;4.68;;
39728;SDS011;25402;42.004;23.088;2023-07-29T04:03:26;19.20;;;4.75;;
39728;SDS011;25402;42.004;23.088;2023-07-29T04:05:53;26.40;;;4.82;;
39728;SDS011;25402;42.004;23.088;2023-07-29T04:08:20;16.95;;;4.05;;
39728;SDS011;25402;42.004;23.088;2023-07-29T04:10:47;13.80;;;4.30;;
39728;SDS011;25402;42.004;23.088;2023-07-29T04:13:16;10.00;;;4.25;;
39728;SDS011;25402;42.004;23.088;2023-07-29T04:15:43;15.88;;;5.43;;
39728;SDS011;25402;42.004;23.088;2023-07-29T04:18:12;12.15;;;5.50;;
39728;SDS011;25402;42.004;23.088;2023-07-29T04:20:38;20.08;;;5.03;;
39728;SDS011;25402;42.004;23.088;2023-07-29T04:23:05;16.13;;;4.72;;
39728;SDS011;25402;42.004;23.088;2023-07-29T04:25:32;19.95;;;5.90;;
39728;SDS011;25402;42.004;23.088;2023-07-29T04:27:59;13.10;;;4.30;;
39728;SDS011;25402;42.004;23.088;2023-07-29T04:30:29;12.77;;;4.35;;
39728;SDS011;25402;42.004;23.088;2023-07-29T04:32:56;10.07;;;4.47;;
39728;SDS011;25402;42.004;23.088;2023-07-29T04:35:23;15.45;;;3.95;;
39728;SDS011;25402;42.004;23.088;2023-07-29T04:37:50;13.05;;;3.70;;
39728;SDS011;25402;42.004;23.088;2023-07-29T04:40:17;12.20;;;3.50;;
39728;SDS011;25402;42.004;23.088;2023-07-29T04:42:45;9.02;;;3.17;;
39728;SDS011;25402;42.004;23.088;2023-07-29T04:45:12;6.72;;;3.53;;
39728;SDS011;25402;42.004;23.088;2023-07-29T04:47:40;12.57;;;3.63;;
39728;SDS011;25402;42.004;23.088;2023-07-29T04:50:07;8.57;;;4.00;;
39728;SDS011;25402;42.004;23.088;2023-07-29T04:52:35;9.23;;;3.22;;
39728;SDS011;25402;42.004;23.088;2023-07-29T04:55:02;5.00;;;3.28;;
39728;SDS011;25402;42.004;23.088;2023-07-29T04:57:29;5.43;;;3.00;;
39728;SDS011;25402;42.004;23.088;2023-07-29T04:59:56;8.93;;;3.60;;
39728;SDS011;25402;42.004;23.088;2023-07-29T05:02:23;8.55;;;3.95;;
39728;SDS011;25402;42.004;23.088;2023-07-29T05:04:51;7.78;;;3.78;;
39728;SDS011;25402;42.004;23.088;2023-07-29T05:07:18;8.13;;;3.70;;
39728;SDS011;25402;42.004;23.088;2023-07-29T05:09:45;4.90;;;3.80;;
39728;SDS011;25402;42.004;23.088;2023-07-29T05:12:13;16.17;;;3.45;;
39728;SDS011;25402;42.004;23.088;2023-07-29T05:14:40;10.60;;;3.80;;
39728;SDS011;25402;42.004;23.088;2023-07-29T05:17:06;10.23;;;3.95;;
39728;SDS011;25402;42.004;23.088;2023-07-29T05:19:35;14.45;;;4.13;;
39728;SDS011;25402;42.004;23.088;2023-07-29T05:22:04;8.85;;;3.40;;
39728;SDS011;25402;42.004;23.088;2023-07-29T05:24:31;7.95;;;4.00;;
39728;SDS011;25402;42.004;23.088;2023-07-29T05:26:58;5.95;;;3.25;;
39728;SDS011;25402;42.004;23.088;2023-07-29T05:29:24;5.78;;;3.35;;
39728;SDS011;25402;42.004;23.088;2023-07-29T05:31:51;7.80;;;3.70;;
39728;SDS011;25402;42.004;23.088;2023-07-29T05:34:18;7.13;;;3.13;;
39728;SDS011;25402;42.004;23.088;2023-07-29T05:36:45;7.25;;;3.45;;
39728;SDS011;25402;42.004;23.088;2023-07-29T05:39:13;12.55;;;3.70;;
39728;SDS011;25402;42.004;23.088;2023-07-29T05:41:40;8.68;;;3.38;;
39728;SDS011;25402;42.004;23.088;2023-07-29T05:44:07;4.78;;;3.38;;
39728;SDS011;25402;42.004;23.088;2023-07-29T05:46:34;12.82;;;3.70;;
39728;SDS011;25402;42.004;23.088;2023-07-29T05:49:01;9.40;;;3.50;;
39728;SDS011;25402;42.004;23.088;2023-07-29T05:51:28;10.40;;;3.55;;
39728;SDS011;25402;42.004;23.088;2023-07-29T05:53:54;5.90;;;3.42;;
39728;SDS011;25402;42.004;23.088;2023-07-29T05:56:23;10.65;;;3.33;;
39728;SDS011;25402;42.004;23.088;2023-07-29T05:58:50;6.15;;;3.30;;
39728;SDS011;25402;42.004;23.088;2023-07-29T06:01:16;10.23;;;3.47;;
39728;SDS011;25402;42.004;23.088;2023-07-29T06:03:46;7.65;;;3.58;;
39728;SDS011;25402;42.004;23.088;2023-07-29T06:06:13;10.40;;;3.20;;
39728;SDS011;25402;42.004;23.088;2023-07-29T06:08:40;10.13;;;3.35;;
39728;SDS011;25402;42.004;23.088;2023-07-29T06:11:07;5.55;;;3.60;;
39728;SDS011;25402;42.004;23.088;2023-07-29T06:13:35;8.98;;;3.30;;
39728;SDS011;25402;42.004;23.088;2023-07-29T06:16:02;8.18;;;3.38;;
39728;SDS011;25402;42.004;23.088;2023-07-29T06:18:29;18.17;;;3.85;;
39728;SDS011;25402;42.004;23.088;2023-07-29T06:20:56;5.13;;;3.25;;
39728;SDS011;25402;42.004;23.088;2023-07-29T06:23:23;11.02;;;4.85;;
39728;SDS011;25402;42.004;23.088;2023-07-29T06:25:50;8.85;;;3.55;;
39728;SDS011;25402;42.004;23.088;2023-07-29T06:28:16;5.82;;;3.55;;
39728;SDS011;25402;42.004;23.088;2023-07-29T06:30:45;5.38;;;3.03;;
39728;SDS011;25402;42.004;23.088;2023-07-29T06:33:12;4.53;;;2.90;;
39728;SDS011;25402;42.004;23.088;2023-07-29T06:35:39;8.73;;;3.20;;
39728;SDS011;25402;42.004;23.088;2023-07-29T06:38:05;8.43;;;3.60;;
39728;SDS011;25402;42.004;23.088;2023-07-29T06:40:32;46.13;;;4.60;;
39728;SDS011;25402;42.004;23.088;2023-07-29T06:42:59;13.27;;;3.28;;
39728;SDS011;25402;42.004;23.088;2023-07-29T06:45:26;6.00;;;3.20;;
39728;SDS011;25402;42.004;23.088;2023-07-29T06:47:54;4.97;;;3.35;;
39728;SDS011;25402;42.004;23.088;2023-07-29T06:50:21;21.33;;;3.65;;
39728;SDS011;25402;42.004;23.088;2023-07-29T06:52:48;7.22;;;2.88;;
39728;SDS011;25402;42.004;23.088;2023-07-29T06:55:15;7.07;;;3.05;;
39728;SDS011;25402;42.004;23.088;2023-07-29T06:57:42;10.02;;;3.50;;
39728;SDS011;25402;42.004;23.088;2023-07-29T07:00:09;5.13;;;3.22;;
39728;SDS011;25402;42.004;23.088;2023-07-29T07:02:36;5.80;;;3.00;;
39728;SDS011;25402;42.004;23.088;2023-07-29T07:05:05;6.38;;;4.15;;
39728;SDS011;25402;42.004;23.088;2023-07-29T07:07:32;7.78;;;4.25;;
39728;SDS011;25402;42.004;23.088;2023-07-29T07:09:59;11.05;;;4.15;;
39728;SDS011;25402;42.004;23.088;2023-07-29T07:12:26;6.80;;;3.72;;
39728;SDS011;25402;42.004;23.088;2023-07-29T07:14:53;5.30;;;3.53;;
39728;SDS011;25402;42.004;23.088;2023-07-29T07:17:20;6.28;;;3.40;;
39728;SDS011;25402;42.004;23.088;2023-07-29T07:19:47;5.22;;;3.30;;
39728;SDS011;25402;42.004;23.088;2023-07-29T07:22:16;6.18;;;3.30;;
39728;SDS011;25402;42.004;23.088;2023-07-29T07:24:43;21.65;;;3.60;;
39728;SDS011;25402;42.004;23.088;2023-07-29T07:27:10;10.35;;;3.42;;
39728;SDS011;25402;42.004;23.088;2023-07-29T07:29:37;6.15;;;3.42;;
39728;SDS011;25402;42.004;23.088;2023-07-29T07:32:04;8.43;;;3.65;;
39728;SDS011;25402;42.004;23.088;2023-07-29T07:34:32;5.75;;;3.05;;
39728;SDS011;25402;42.004;23.088;2023-07-29T07:36:59;10.63;;;3.50;;
39728;SDS011;25402;42.004;23.088;2023-07-29T07:39:28;14.73;;;3.85;;
39728;SDS011;25402;42.004;23.088;2023-07-29T07:41:55;21.85;;;3.90;;
39728;SDS011;25402;42.004;23.088;2023-07-29T07:44:22;7.70;;;3.08;;
39728;SDS011;25402;42.004;23.088;2023-07-29T07:46:51;6.28;;;3.20;;
39728;SDS011;25402;42.004;23.088;2023-07-29T07:49:18;6.30;;;3.00;;
39728;SDS011;25402;42.004;23.088;2023-07-29T07:51:45;8.50;;;2.92;;
39728;SDS011;25402;42.004;23.088;2023-07-29T07:54:12;5.88;;;3.03;;
39728;SDS011;25402;42.004;23.088;2023-07-29T07:56:40;5.90;;;3.55;;
39728;SDS011;25402;42.004;23.088;2023-07-29T07:59:07;5.90;;;2.90;;
39728;SDS011;25402;42.004;23.088;2023-07-29T08:01:34;4.60;;;3.10;;
39728;SDS011;25402;42.004;23.088;2023-07-29T08:04:02;9.00;;;3.10;;
39728;SDS011;25402;42.004;23.088;2023-07-29T08:06:29;10.45;;;3.35;;
39728;SDS011;25402;42.004;23.088;2023-07-29T08:08:56;12.60;;;3.28;;
39728;SDS011;25402;42.004;23.088;2023-07-29T08:11:22;7.47;;;3.05;;
39728;SDS011;25402;42.004;23.088;2023-07-29T08:13:51;10.48;;;3.58;;
39728;SDS011;25402;42.004;23.088;2023-07-29T08:16:18;5.38;;;3.30;;
39728;SDS011;25402;42.004;23.088;2023-07-29T08:18:45;4.70;;;3.60;;
39728;SDS011;25402;42.004;23.088;2023-07-29T08:21:12;8.10;;;3.53;;
39728;SDS011;25402;42.004;23.088;2023-07-29T08:23:39;5.50;;;3.10;;
39728;SDS011;25402;42.004;23.088;2023-07-29T08:26:06;9.93;;;3.58;;
39728;SDS011;25402;42.004;23.088;2023-07-29T08:28:36;7.20;;;3.20;;
39728;SDS011;25402;42.004;23.088;2023-07-29T08:31:05;8.98;;;3.60;;
39728;SDS011;25402;42.004;23.088;2023-07-29T08:33:33;5.15;;;3.25;;
39728;SDS011;25402;42.004;23.088;2023-07-29T08:36:00;12.45;;;3.50;;
39728;SDS011;25402;42.004;23.088;2023-07-29T08:38:27;3.90;;;2.63;;
39728;SDS011;25402;42.004;23.088;2023-07-29T08:40:57;7.72;;;3.05;;
39728;SDS011;25402;42.004;23.088;2023-07-29T08:43:27;8.55;;;3.17;;
39728;SDS011;25402;42.004;23.088;2023-07-29T08:45:56;6.25;;;3.17;;
39728;SDS011;25402;42.004;23.088;2023-07-29T08:48:29;5.30;;;2.90;;
39728;SDS011;25402;42.004;23.088;2023-07-29T08:50:59;6.25;;;3.15;;
39728;SDS011;25402;42.004;23.088;2023-07-29T08:53:29;5.43;;;3.13;;
39728;SDS011;25402;42.004;23.088;2023-07-29T08:55:58;5.85;;;2.72;;
39728;SDS011;25402;42.004;23.088;2023-07-29T08:58:25;9.75;;;2.78;;
39728;SDS011;25402;42.004;23.088;2023-07-29T09:00:53;3.95;;;2.55;;
39728;SDS011;25402;42.004;23.088;2023-07-29T09:03:20;6.63;;;2.75;;
39728;SDS011;25402;42.004;23.088;2023-07-29T09:05:48;4.75;;;2.70;;
39728;SDS011;25402;42.004;23.088;2023-07-29T09:08:16;7.43;;;2.78;;
39728;SDS011;25402;42.004;23.088;2023-07-29T09:10:44;4.47;;;2.80;;
39728;SDS011;25402;42.004;23.088;2023-07-29T09:13:11;10.00;;;2.67;;
39728;SDS011;25402;42.004;23.088;2023-07-29T09:15:38;10.45;;;3.50;;
39728;SDS011;25402;42.004;23.088;2023-07-29T09:18:10;3.83;;;2.67;;
39728;SDS011;25402;42.004;23.088;2023-07-29T09:20:38;3.65;;;2.50;;
39728;SDS011;25402;42.004;23.088;2023-07-29T09:23:08;3.53;;;2.70;;
39728;SDS011;25402;42.004;23.088;2023-07-29T09:25:36;5.50;;;2.50;;
39728;SDS011;25402;42.004;23.088;2023-07-29T09:28:07;4.57;;;2.50;;
39728;SDS011;25402;42.004;23.088;2023-07-29T09:30:37;5.00;;;2.47;;
39728;SDS011;25402;42.004;23.088;2023-07-29T09:33:04;4.07;;;2.40;;
39728;SDS011;25402;42.004;23.088;2023-07-29T09:35:32;3.58;;;2.20;;
39728;SDS011;25402;42.004;23.088;2023-07-29T09:38:00;6.25;;;2.65;;
39728;SDS011;25402;42.004;23.088;2023-07-29T09:40:33;2.50;;;2.10;;
39728;SDS011;25402;42.004;23.088;2023-07-29T09:43:02;3.88;;;1.92;;
39728;SDS011;25402;42.004;23.088;2023-07-29T09:45:29;5.10;;;1.95;;
39728;SDS011;25402;42.004;23.088;2023-07-29T09:47:57;3.45;;;2.03;;
39728;SDS011;25402;42.004;23.088;2023-07-29T09:50:24;11.35;;;1.80;;
39728;SDS011;25402;42.004;23.088;2023-07-29T09:52:52;4.78;;;1.88;;
39728;SDS011;25402;42.004;23.088;2023-07-29T09:55:21;2.70;;;1.80;;
39728;SDS011;25402;42.004;23.088;2023-07-29T09:57:54;2.13;;;1.92;;
39728;SDS011;25402;42.004;23.088;2023-07-29T10:00:24;4.55;;;1.95;;
39728;SDS011;25402;42.004;23.088;2023-07-29T10:02:51;5.75;;;2.00;;
39728;SDS011;25402;42.004;23.088;2023-07-29T10:05:20;3.22;;;1.80;;
39728;SDS011;25402;42.004;23.088;2023-07-29T10:07:48;18.33;;;2.55;;
39728;SDS011;25402;42.004;23.088;2023-07-29T10:10:16;1.60;;;1.50;;
39728;SDS011;25402;42.004;23.088;2023-07-29T10:12:43;3.22;;;1.30;;
39728;SDS011;25402;42.004;23.088;2023-07-29T10:15:12;1.67;;;1.20;;
39728;SDS011;25402;42.004;23.088;2023-07-29T10:17:39;2.63;;;1.40;;
39728;SDS011;25402;42.004;23.088;2023-07-29T10:20:07;5.30;;;1.60;;
39728;SDS011;25402;42.004;23.088;2023-07-29T10:22:36;1.50;;;1.40;;
39728;SDS011;25402;42.004;23.088;2023-07-29T10:25:05;2.10;;;1.50;;
39728;SDS011;25402;42.004;23.088;2023-07-29T10:27:35;4.03;;;1.30;;
39728;SDS011;25402;42.004;23.088;2023-07-29T10:30:09;1.73;;;1.63;;
39728;SDS011;25402;42.004;23.088;2023-07-29T10:32:41;2.28;;;1.52;;
39728;SDS011;25402;42.004;23.088;2023-07-29T10:35:10;3.67;;;1.38;;
39728;SDS011;25402;42.004;23.088;2023-07-29T10:37:37;1.63;;;1.42;;
39728;SDS011;25402;42.004;23.088;2023-07-29T10:40:06;1.73;;;1.55;;
39728;SDS011;25402;42.004;23.088;2023-07-29T10:42:34;2.67;;;1.85;;
39728;SDS011;25402;42.004;23.088;2023-07-29T10:45:16;2.03;;;1.80;;
39728;SDS011;25402;42.004;23.088;2023-07-29T10:47:45;2.90;;;2.00;;
39728;SDS011;25402;42.004;23.088;2023-07-29T10:50:17;1.80;;;1.70;;
39728;SDS011;25402;42.004;23.088;2023-07-29T10:52:48;1.90;;;1.52;;
39728;SDS011;25402;42.004;23.088;2023-07-29T10:55:26;6.97;;;1.67;;
39728;SDS011;25402;42.004;23.088;2023-07-29T10:58:08;3.83;;;1.80;;
39728;SDS011;25402;42.004;23.088;2023-07-29T11:00:39;3.83;;;1.85;;
39728;SDS011;25402;42.004;23.088;2023-07-29T11:03:08;4.38;;;1.65;;
39728;SDS011;25402;42.004;23.088;2023-07-29T11:05:42;3.33;;;1.80;;
39728;SDS011;25402;42.004;23.088;2023-07-29T11:08:21;4.65;;;1.83;;
39728;SDS011;25402;42.004;23.088;2023-07-29T11:11:01;1.80;;;1.60;;
39728;SDS011;25402;42.004;23.088;2023-07-29T11:13:32;8.40;;;1.73;;
39728;SDS011;25402;42.004;23.088;2023-07-29T11:16:01;1.92;;;1.70;;
39728;SDS011;25402;42.004;23.088;2023-07-29T11:18:29;4.30;;;1.70;;
39728;SDS011;25402;42.004;23.088;2023-07-29T11:20:58;4.03;;;1.77;;
39728;SDS011;25402;42.004;23.088;2023-07-29T11:23:30;2.08;;;1.50;;
39728;SDS011;25402;42.004;23.088;2023-07-29T11:25:57;1.60;;;1.50;;
39728;SDS011;25402;42.004;23.088;2023-07-29T11:28:25;1.63;;;1.52;;
39728;SDS011;25402;42.004;23.088;2023-07-29T11:30:53;5.72;;;1.63;;
39728;SDS011;25402;42.004;23.088;2023-07-29T11:33:23;1.83;;;1.42;;
39728;SDS011;25402;42.004;23.088;2023-07-29T11:35:51;4.20;;;1.80;;
39728;SDS011;25402;42.004;23.088;2023-07-29T11:38:18;3.58;;;2.08;;
39728;SDS011;25402;42.004;23.088;2023-07-29T11:40:56;3.55;;;2.10;;
39728;SDS011;25402;42.004;23.088;2023-07-29T11:43:24;5.85;;;1.83;;
39728;SDS011;25402;42.004;23.088;2023-07-29T11:45:51;2.60;;;1.52;;
39728;SDS011;25402;42.004;23.088;2023-07-29T11:48:21;5.55;;;1.95;;
39728;SDS011;25402;42.004;23.088;2023-07-29T11:50:54;3.15;;;2.00;;
39728;SDS011;25402;42.004;23.088;2023-07-29T11:53:21;4.70;;;1.80;;
39728;SDS011;25402;42.004;23.088;2023-07-29T11:55:50;4.82;;;1.83;;
39728;SDS011;25402;42.004;23.088;2023-07-29T11:58:18;2.35;;;1.88;;
39728;SDS011;25402;42.004;23.088;2023-07-29T12:00:45;2.28;;;1.90;;
39728;SDS011;25402;42.004;23.088;2023-07-29T12:03:12;2.20;;;2.00;;
39728;SDS011;25402;42.004;23.088;2023-07-29T12:05:43;4.28;;;1.80;;
39728;SDS011;25402;42.004;23.088;2023-07-29T12:08:10;2.10;;;1.90;;
39728;SDS011;25402;42.004;23.088;2023-07-29T12:10:37;2.00;;;1.80;;
39728;SDS011;25402;42.004;23.088;2023-07-29T12:13:05;3.17;;;2.00;;
39728;SDS011;25402;42.004;23.088;2023-07-29T12:15:34;2.38;;;1.88;;
39728;SDS011;25402;42.004;23.088;2023-07-29T12:18:04;7.97;;;1.83;;
39728;SDS011;25402;42.004;23.088;2023-07-29T12:20:31;2.13;;;1.90;;
39728;SDS011;25402;42.004;23.088;2023-07-29T12:22:59;2.47;;;2.00;;
39728;SDS011;25402;42.004;23.088;2023-07-29T12:25:28;2.03;;;1.70;;
39728;SDS011;25402;42.004;23.088;2023-07-29T12:27:55;3.00;;;2.10;;
39728;SDS011;25402;42.004;23.088;2023-07-29T12:30:22;2.10;;;1.90;;
39728;SDS011;25402;42.004;23.088;2023-07-29T12:32:49;2.13;;;1.95;;
39728;SDS011;25402;42.004;23.088;2023-07-29T12:35:16;7.47;;;2.20;;
39728;SDS011;25402;42.004;23.088;2023-07-29T12:37:43;4.85;;;2.10;;
39728;SDS011;25402;42.004;23.088;2023-07-29T12:40:24;2.70;;;2.10;;
39728;SDS011;25402;42.004;23.088;2023-07-29T12:42:52;6.33;;;2.00;;
39728;SDS011;25402;42.004;23.088;2023-07-29T12:45:19;13.85;;;2.65;;
39728;SDS011;25402;42.004;23.088;2023-07-29T12:47:48;2.60;;;1.90;;
39728;SDS011;25402;42.004;23.088;2023-07-29T12:50:15;8.93;;;2.08;;
39728;SDS011;25402;42.004;23.088;2023-07-29T12:52:42;2.60;;;1.90;;
39728;SDS011;25402;42.004;23.088;2023-07-29T12:55:09;4.40;;;2.00;;
39728;SDS011;25402;42.004;23.088;2023-07-29T12:57:40;5.70;;;1.90;;
39728;SDS011;25402;42.004;23.088;2023-07-29T13:00:09;3.33;;;2.05;;
39728;SDS011;25402;42.004;23.088;2023-07-29T13:02:36;2.45;;;1.77;;
39728;SDS011;25402;42.004;23.088;2023-07-29T13:05:04;3.75;;;2.00;;
39728;SDS011;25402;42.004;23.088;2023-07-29T13:07:32;2.40;;;1.92;;
39728;SDS011;25402;42.004;23.088;2023-07-29T13:09:59;2.38;;;1.90;;
39728;SDS011;25402;42.004;23.088;2023-07-29T13:12:26;2.20;;;1.92;;
39728;SDS011;25402;42.004;23.088;2023-07-29T13:14:55;4.75;;;1.80;;
39728;SDS011;25402;42.004;23.088;2023-07-29T13:17:22;2.05;;;1.85;;
39728;SDS011;25402;42.004;23.088;2023-07-29T13:19:49;4.30;;;1.98;;
39728;SDS011;25402;42.004;23.088;2023-07-29T13:22:16;2.58;;;1.90;;
39728;SDS011;25402;42.004;23.088;2023-07-29T13:24:43;2.28;;;1.95;;
39728;SDS011;25402;42.004;23.088;2023-07-29T13:27:11;2.83;;;2.00;;
39728;SDS011;25402;42.004;23.088;2023-07-29T13:29:39;4.18;;;2.10;;
39728;SDS011;25402;42.004;23.088;2023-07-29T13:32:08;2.70;;;2.00;;
39728;SDS011;25402;42.004;23.088;2023-07-29T13:34:35;2.72;;;2.00;;
39728;SDS011;25402;42.004;23.088;2023-07-29T13:37:04;3.80;;;2.00;;
39728;SDS011;25402;42.004;23.088;2023-07-29T13:39:31;6.40;;;1.80;;
39728;SDS011;25402;42.004;23.088;2023-07-29T13:41:58;3.55;;;2.03;;
39728;SDS011;25402;42.004;23.088;2023-07-29T13:44:25;4.53;;;1.90;;
39728;SDS011;25402;42.004;23.088;2023-07-29T13:46:52;2.53;;;2.13;;
39728;SDS011;25402;42.004;23.088;2023-07-29T13:49:20;7.15;;;2.22;;
39728;SDS011;25402;42.004;23.088;2023-07-29T13:51:47;4.45;;;1.88;;
39728;SDS011;25402;42.004;23.088;2023-07-29T13:54:14;4.10;;;2.25;;
39728;SDS011;25402;42.004;23.088;2023-07-29T13:56:41;6.38;;;2.10;;
39728;SDS011;25402;42.004;23.088;2023-07-29T13:59:08;2.45;;;2.00;;
39728;SDS011;25402;42.004;23.088;2023-07-29T14:01:35;2.53;;;2.13;;
39728;SDS011;25402;42.004;23.088;2023-07-29T14:04:02;4.78;;;2.13;;
39728;SDS011;25402;42.004;23.088;2023-07-29T14:06:30;4.85;;;2.25;;
39728;SDS011;25402;42.004;23.088;2023-07-29T14:08:57;2.63;;;1.95;;
39728;SDS011;25402;42.004;23.088;2023-07-29T14:11:24;2.30;;;2.08;;
39728;SDS011;25402;42.004;23.088;2023-07-29T14:13:51;3.55;;;2.30;;
39728;SDS011;25402;42.004;23.088;2023-07-29T14:16:18;4.53;;;1.90;;
39728;SDS011;25402;42.004;23.088;2023-07-29T14:18:45;4.55;;;2.20;;
39728;SDS011;25402;42.004;23.088;2023-07-29T14:21:12;2.58;;;1.83;;
39728;SDS011;25402;42.004;23.088;2023-07-29T14:23:40;5.28;;;2.72;;
39728;SDS011;25402;42.004;23.088;2023-07-29T14:26:07;2.80;;;2.25;;
39728;SDS011;25402;42.004;23.088;2023-07-29T14:28:35;4.75;;;2.20;;
39728;SDS011;25402;42.004;23.088;2023-07-29T14:31:02;7.30;;;2.60;;
39728;SDS011;25402;42.004;23.088;2023-07-29T14:33:28;3.60;;;2.60;;
39728;SDS011;25402;42.004;23.088;2023-07-29T14:35:55;3.05;;;2.38;;